Seaways Leyte — V7WA7 — position and weather

sailwx.info

Track history (hours):
 
Tides and Currents Weather Stations Pressure Air Temp Water Temp Dewpoint Dewpoint Depression Visibility Wind Speed Wind Dir Waves Ship Positions

Seaways Leyte

Last reported at 2017-Dec-11 17:01 UTC. Time now 2017-Dec-12 20:11 UTC.
Position N 09°22' W 079°56'.

Length 229 m; draft 11 m.

Type: Tanker. MMSI: 538004255.

Date/timePositionNaut miles runAvg speedWind from/ knotsBaromVisibWave heightAir tempDewpointWater temp
2017-Dec-11 17:01N 09°22' W 079°56'2 4.0
2017-Dec-11 16:31N 09°24' W 079°55'4 8.4
2017-Dec-11 16:01N 09°28' W 079°55'1 2.4
2017-Dec-11 15:29N 09°28' W 079°56'2 3.5
2017-Dec-11 15:01N 09°27' W 079°55'0 0.7
2017-Dec-11 14:31N 09°26' W 079°56'0 0.1
2017-Dec-11 14:00N 09°26' W 079°56'0 0.0
2017-Dec-11 13:30N 09°26' W 079°56'0 0.0
2017-Dec-11 13:00N 09°26' W 079°56'0 0.0
2017-Dec-11 12:30N 09°26' W 079°56'0 0.0
2017-Dec-11 12:00N 09°26' W 079°56'0 0.1
2017-Dec-11 11:30N 09°26' W 079°56'0 0.1
2017-Dec-11 11:00N 09°26' W 079°56'0 0.1
2017-Dec-11 10:30N 09°26' W 079°56'0 0.1
2017-Dec-11 10:00N 09°26' W 079°56'0 0.1
2017-Dec-11 09:30N 09°26' W 079°56'0 0.1
2017-Dec-11 09:00N 09°26' W 079°56'0 0.0
2017-Dec-11 08:27N 09°26' W 079°56'0 0.0
2017-Dec-11 08:00N 09°26' W 079°56'0 0.0
2017-Dec-11 07:30N 09°26' W 079°56'0 0.0
2017-Dec-11 07:00N 09°26' W 079°56'0 0.1
2017-Dec-11 06:30N 09°26' W 079°56'0 0.1
2017-Dec-11 06:00N 09°26' W 079°56'0 0.0
2017-Dec-11 05:30N 09°26' W 079°56'0 0.1
2017-Dec-11 05:00N 09°26' W 079°56'0 0.0
2017-Dec-11 04:30N 09°26' W 079°56'0 0.0
2017-Dec-11 04:00N 09°26' W 079°56'0 0.0
2017-Dec-11 03:30N 09°26' W 079°56'0 0.0
2017-Dec-11 03:00N 09°26' W 079°56'0 0.1
2017-Dec-11 02:30N 09°26' W 079°56'0 0.1
2017-Dec-11 02:00N 09°26' W 079°56'0 0.0
2017-Dec-11 01:30N 09°26' W 079°56'0 0.1
2017-Dec-11 01:00N 09°26' W 079°56'0 0.1
2017-Dec-11 00:30N 09°26' W 079°56'0 0.1
2017-Dec-11 00:00N 09°26' W 079°56'0 0.1
2017-Dec-10 23:30N 09°26' W 079°56'0 0.1
2017-Dec-10 23:00N 09°26' W 079°56'0 0.1
2017-Dec-10 22:30N 09°26' W 079°56'0 0.1
2017-Dec-10 22:00N 09°26' W 079°56'0 0.1
2017-Dec-10 21:30N 09°26' W 079°56'0 0.1
2017-Dec-10 21:00N 09°26' W 079°56'0 0.0
2017-Dec-10 20:30N 09°26' W 079°56'0 0.0
2017-Dec-10 20:00N 09°26' W 079°56'0 0.2
2017-Dec-10 19:30N 09°26' W 079°56'0 0.1
2017-Dec-10 19:00N 09°26' W 079°56'0 0.0
2017-Dec-10 18:30N 09°26' W 079°56'0 0.0
2017-Dec-10 18:00N 09°26' W 079°56'0 0.0
2017-Dec-10 17:30N 09°26' W 079°56'0 0.0
2017-Dec-10 17:00N 09°26' W 079°56'0 0.0
2017-Dec-10 16:30N 09°26' W 079°56'0 0.0
2017-Dec-10 16:00N 09°26' W 079°56'1 1.1
2017-Dec-10 15:30N 09°27' W 079°55'2 4.4
2017-Dec-10 15:00N 09°29' W 079°54'5 9.9
2017-Dec-10 14:30N 09°33' W 079°52'712.9
2017-Dec-10 14:00N 09°40' W 079°51'24711.5
2017-Dec-09 16:25N 10°19' W 075°44'513.0
2017-Dec-09 16:00N 10°19' W 075°38'5 9.6
2017-Dec-09 15:30N 10°19' W 075°33'0 0.3
2017-Dec-09 14:56N 10°19' W 075°34'0 0.1
2017-Dec-09 14:29N 10°19' W 075°34'0 0.0
2017-Dec-09 13:59N 10°19' W 075°34'0 0.0
2017-Dec-09 13:29N 10°19' W 075°34'0 0.1
2017-Dec-09 12:59N 10°19' W 075°34'0 0.1
2017-Dec-09 12:29N 10°19' W 075°33'2 3.2
2017-Dec-09 12:01N 10°20' W 075°32'2 3.1
2017-Dec-09 11:30N 10°20' W 075°31'0 0.0
2017-Dec-09 10:59N 10°20' W 075°31'0 0.0
2017-Dec-09 10:28N 10°20' W 075°31'0 0.0
2017-Dec-09 09:59N 10°20' W 075°31'0 0.0
2017-Dec-09 09:25N 10°20' W 075°31'0 0.0
2017-Dec-09 08:59N 10°20' W 075°31'0 0.0
2017-Dec-09 08:29N 10°20' W 075°31'0 0.0
2017-Dec-09 07:59N 10°20' W 075°31'0 0.0
2017-Dec-09 07:29N 10°20' W 075°31'0 0.0
2017-Dec-09 06:56N 10°20' W 075°31'0 0.0
2017-Dec-09 06:26N 10°20' W 075°31'0 0.0
2017-Dec-09 05:58N 10°20' W 075°31'0 0.0
2017-Dec-09 05:26N 10°20' W 075°31'0 0.0
2017-Dec-09 04:59N 10°20' W 075°31'0 0.0
2017-Dec-09 04:29N 10°20' W 075°31'0 0.0
2017-Dec-09 03:59N 10°20' W 075°31'0 0.0
2017-Dec-09 03:29N 10°20' W 075°31'0 0.0
2017-Dec-09 02:56N 10°20' W 075°31'0 0.0
2017-Dec-09 02:29N 10°20' W 075°31'0 0.0
2017-Dec-09 01:56N 10°20' W 075°31'0 0.0
2017-Dec-09 01:26N 10°20' W 075°31'0 0.0
2017-Dec-09 00:56N 10°20' W 075°31'0 0.0
2017-Dec-09 00:25N 10°20' W 075°31'0 0.0
2017-Dec-08 23:56N 10°20' W 075°31'0 0.0
2017-Dec-08 23:29N 10°20' W 075°31'0 0.0
2017-Dec-08 22:56N 10°20' W 075°31'0 0.0
2017-Dec-08 22:25N 10°20' W 075°31'0 0.0
2017-Dec-08 21:56N 10°20' W 075°31'0 0.0
2017-Dec-08 21:26N 10°20' W 075°31'0 0.0
2017-Dec-08 20:55N 10°20' W 075°31'0 0.0
2017-Dec-08 20:29N 10°20' W 075°31'0 0.0
2017-Dec-08 19:59N 10°20' W 075°31'0 0.0
2017-Dec-08 19:29N 10°20' W 075°31'0 0.0
2017-Dec-08 18:59N 10°20' W 075°31'0 0.0
2017-Dec-08 18:29N 10°20' W 075°31'0 0.0
2017-Dec-08 17:59N 10°20' W 075°31'0 0.0
2017-Dec-08 17:28N 10°20' W 075°31'0 0.0
2017-Dec-08 16:53N 10°20' W 075°31'0 0.0
2017-Dec-08 16:29N 10°20' W 075°31'0 0.0
2017-Dec-08 15:59N 10°20' W 075°31'0 0.0
2017-Dec-08 15:29N 10°20' W 075°31'0 0.0
2017-Dec-08 14:59N 10°20' W 075°31'0 0.0
2017-Dec-08 14:29N 10°20' W 075°31'0 0.0
2017-Dec-08 13:59N 10°20' W 075°31'0 0.0
2017-Dec-08 13:29N 10°20' W 075°31'0 0.0
2017-Dec-08 12:56N 10°20' W 075°31'0 0.0
2017-Dec-08 12:28N 10°20' W 075°31'0 0.0
2017-Dec-08 11:56N 10°20' W 075°31'0 0.0
2017-Dec-08 11:29N 10°20' W 075°31'0 0.0
2017-Dec-08 10:56N 10°20' W 075°31'0 0.0
2017-Dec-08 10:29N 10°20' W 075°31'0 0.0
2017-Dec-08 09:59N 10°20' W 075°31'0 0.0
2017-Dec-08 09:29N 10°20' W 075°31'0 0.0
2017-Dec-08 08:59N 10°20' W 075°31'0 0.0
2017-Dec-08 08:29N 10°20' W 075°31'0 0.0
2017-Dec-08 07:56N 10°20' W 075°31'0 0.0
2017-Dec-08 07:29N 10°20' W 075°31'0 0.0
2017-Dec-08 06:58N 10°20' W 075°31'0 0.0
2017-Dec-08 06:29N 10°20' W 075°31'0 0.0
2017-Dec-08 05:58N 10°20' W 075°31'0 0.0
2017-Dec-08 05:29N 10°20' W 075°31'0 0.0
2017-Dec-08 04:56N 10°20' W 075°31'0 0.0
2017-Dec-08 04:29N 10°20' W 075°31'0 0.0
2017-Dec-08 03:58N 10°20' W 075°31'0 0.0
2017-Dec-08 03:29N 10°20' W 075°31'0 0.0
2017-Dec-08 02:59N 10°20' W 075°31'0 0.0
2017-Dec-08 02:29N 10°20' W 075°31'0 0.0
2017-Dec-08 01:59N 10°20' W 075°31'0 0.0
2017-Dec-08 01:29N 10°20' W 075°31'0 0.0
2017-Dec-08 00:58N 10°20' W 075°31'0 0.0
2017-Dec-08 00:29N 10°20' W 075°31'0 0.0
2017-Dec-07 23:58N 10°20' W 075°31'0 0.0
2017-Dec-07 23:29N 10°20' W 075°31'0 0.0
2017-Dec-07 22:59N 10°20' W 075°31'0 0.0
2017-Dec-07 22:29N 10°20' W 075°31'0 0.0
2017-Dec-07 21:59N 10°20' W 075°31'0 0.0
2017-Dec-07 21:29N 10°20' W 075°31'0 0.0
2017-Dec-07 20:59N 10°20' W 075°31'0 0.0
2017-Dec-07 20:29N 10°20' W 075°31'0 0.0
2017-Dec-07 19:59N 10°20' W 075°31'0 0.0
2017-Dec-07 19:29N 10°20' W 075°31'0 0.1
2017-Dec-07 19:00N 10°20' W 075°31'1 2.0
2017-Dec-07 18:30N 10°20' W 075°32'0 0.8
2017-Dec-07 17:59N 10°19' W 075°32'0 0.0
2017-Dec-07 17:29N 10°19' W 075°32'0 0.0
2017-Dec-07 16:59N 10°19' W 075°32'0 0.0
2017-Dec-07 16:29N 10°19' W 075°32'0 0.1
2017-Dec-07 15:59N 10°19' W 075°32'0 0.1
2017-Dec-07 15:29N 10°20' W 075°32'0 0.0
2017-Dec-07 14:59N 10°20' W 075°32'0 0.0
2017-Dec-07 14:29N 10°20' W 075°32'0 0.0
2017-Dec-07 13:59N 10°20' W 075°32'0 0.0
2017-Dec-07 13:29N 10°20' W 075°32'0 0.0
2017-Dec-07 12:59N 10°20' W 075°32'0 0.0
2017-Dec-07 12:29N 10°20' W 075°32'0 0.0
2017-Dec-07 11:59N 10°20' W 075°32'0 0.0
2017-Dec-07 11:29N 10°20' W 075°32'0 0.0
2017-Dec-07 10:59N 10°20' W 075°32'0 0.0
2017-Dec-07 10:29N 10°20' W 075°32'0 0.0
2017-Dec-07 09:59N 10°20' W 075°32'0 0.0
2017-Dec-07 09:29N 10°20' W 075°32'0 0.0
2017-Dec-07 08:59N 10°20' W 075°32'0 0.0
2017-Dec-07 08:29N 10°20' W 075°32'0 0.1
2017-Dec-07 07:59N 10°20' W 075°32'0 0.1
2017-Dec-07 07:29N 10°19' W 075°32'0 0.1
2017-Dec-07 06:59N 10°19' W 075°32'0 0.1
2017-Dec-07 06:29N 10°19' W 075°32'0 0.0
2017-Dec-07 05:59N 10°19' W 075°32'0 0.1
2017-Dec-07 05:29N 10°19' W 075°32'0 0.1
2017-Dec-07 04:59N 10°19' W 075°32'0 0.0
2017-Dec-07 04:29N 10°19' W 075°32'0 0.0
2017-Dec-07 03:59N 10°19' W 075°32'0 0.0
2017-Dec-07 03:29N 10°19' W 075°32'0 0.0
2017-Dec-07 02:59N 10°19' W 075°32'0 0.0
2017-Dec-07 02:29N 10°19' W 075°32'0 0.1
2017-Dec-07 01:59N 10°19' W 075°32'0 0.1
2017-Dec-07 01:29N 10°19' W 075°32'0 0.0
2017-Dec-07 00:59N 10°19' W 075°32'0 0.0
2017-Dec-07 00:29N 10°19' W 075°32'0 0.0
2017-Dec-06 23:59N 10°19' W 075°32'0 0.1
2017-Dec-06 23:29N 10°19' W 075°32'0 0.2
2017-Dec-06 22:59N 10°19' W 075°32'0 0.2
2017-Dec-06 22:29N 10°19' W 075°32'0 0.1
2017-Dec-06 21:59N 10°19' W 075°32'0 0.1
2017-Dec-06 21:29N 10°19' W 075°32'0 0.0
2017-Dec-06 20:59N 10°19' W 075°32'  
Track history (hours):
 
Tides and Currents Weather Stations Pressure Air Temp Water Temp Dewpoint Dewpoint Depression Visibility Wind Speed Wind Dir Waves Ship Positions

Seaways Leyte

Last reported at 2017-Dec-11 17:01 UTC. Time now 2017-Dec-12 20:11 UTC.
Position N 09°22' W 079°56'.

Length 229 m; draft 11 m.

Type: Tanker. MMSI: 538004255.

Date/timePositionNaut miles runAvg speedWind from/ knotsBaromVisibWave heightAir tempDewpointWater temp
2017-Dec-11 17:01N 09°22' W 079°56'2 4.0
2017-Dec-11 16:31N 09°24' W 079°55'4 8.4
2017-Dec-11 16:01N 09°28' W 079°55'1 2.4
2017-Dec-11 15:29N 09°28' W 079°56'2 3.5
2017-Dec-11 15:01N 09°27' W 079°55'0 0.7
2017-Dec-11 14:31N 09°26' W 079°56'0 0.1
2017-Dec-11 14:00N 09°26' W 079°56'0 0.0
2017-Dec-11 13:30N 09°26' W 079°56'0 0.0
2017-Dec-11 13:00N 09°26' W 079°56'0 0.0
2017-Dec-11 12:30N 09°26' W 079°56'0 0.0
2017-Dec-11 12:00N 09°26' W 079°56'0 0.1
2017-Dec-11 11:30N 09°26' W 079°56'0 0.1
2017-Dec-11 11:00N 09°26' W 079°56'0 0.1
2017-Dec-11 10:30N 09°26' W 079°56'0 0.1
2017-Dec-11 10:00N 09°26' W 079°56'0 0.1
2017-Dec-11 09:30N 09°26' W 079°56'0 0.1
2017-Dec-11 09:00N 09°26' W 079°56'0 0.0
2017-Dec-11 08:27N 09°26' W 079°56'0 0.0
2017-Dec-11 08:00N 09°26' W 079°56'0 0.0
2017-Dec-11 07:30N 09°26' W 079°56'0 0.0
2017-Dec-11 07:00N 09°26' W 079°56'0 0.1
2017-Dec-11 06:30N 09°26' W 079°56'0 0.1
2017-Dec-11 06:00N 09°26' W 079°56'0 0.0
2017-Dec-11 05:30N 09°26' W 079°56'0 0.1
2017-Dec-11 05:00N 09°26' W 079°56'0 0.0
2017-Dec-11 04:30N 09°26' W 079°56'0 0.0
2017-Dec-11 04:00N 09°26' W 079°56'0 0.0
2017-Dec-11 03:30N 09°26' W 079°56'0 0.0
2017-Dec-11 03:00N 09°26' W 079°56'0 0.1
2017-Dec-11 02:30N 09°26' W 079°56'0 0.1
2017-Dec-11 02:00N 09°26' W 079°56'0 0.0
2017-Dec-11 01:30N 09°26' W 079°56'0 0.1
2017-Dec-11 01:00N 09°26' W 079°56'0 0.1
2017-Dec-11 00:30N 09°26' W 079°56'0 0.1
2017-Dec-11 00:00N 09°26' W 079°56'0 0.1
2017-Dec-10 23:30N 09°26' W 079°56'0 0.1
2017-Dec-10 23:00N 09°26' W 079°56'0 0.1
2017-Dec-10 22:30N 09°26' W 079°56'0 0.1
2017-Dec-10 22:00N 09°26' W 079°56'0 0.1
2017-Dec-10 21:30N 09°26' W 079°56'0 0.1
2017-Dec-10 21:00N 09°26' W 079°56'0 0.0
2017-Dec-10 20:30N 09°26' W 079°56'0 0.0
2017-Dec-10 20:00N 09°26' W 079°56'0 0.2
2017-Dec-10 19:30N 09°26' W 079°56'0 0.1
2017-Dec-10 19:00N 09°26' W 079°56'0 0.0
2017-Dec-10 18:30N 09°26' W 079°56'0 0.0
2017-Dec-10 18:00N 09°26' W 079°56'0 0.0
2017-Dec-10 17:30N 09°26' W 079°56'0 0.0
2017-Dec-10 17:00N 09°26' W 079°56'0 0.0
2017-Dec-10 16:30N 09°26' W 079°56'0 0.0
2017-Dec-10 16:00N 09°26' W 079°56'1 1.1
2017-Dec-10 15:30N 09°27' W 079°55'2 4.4
2017-Dec-10 15:00N 09°29' W 079°54'5 9.9
2017-Dec-10 14:30N 09°33' W 079°52'712.9
2017-Dec-10 14:00N 09°40' W 079°51'24711.5
2017-Dec-09 16:25N 10°19' W 075°44'513.0
2017-Dec-09 16:00N 10°19' W 075°38'5 9.6
2017-Dec-09 15:30N 10°19' W 075°33'0 0.3
2017-Dec-09 14:56N 10°19' W 075°34'0 0.1
2017-Dec-09 14:29N 10°19' W 075°34'0 0.0
2017-Dec-09 13:59N 10°19' W 075°34'0 0.0
2017-Dec-09 13:29N 10°19' W 075°34'0 0.1
2017-Dec-09 12:59N 10°19' W 075°34'0 0.1
2017-Dec-09 12:29N 10°19' W 075°33'2 3.2
2017-Dec-09 12:01N 10°20' W 075°32'2 3.1
2017-Dec-09 11:30N 10°20' W 075°31'0 0.0
2017-Dec-09 10:59N 10°20' W 075°31'0 0.0
2017-Dec-09 10:28N 10°20' W 075°31'0 0.0
2017-Dec-09 09:59N 10°20' W 075°31'0 0.0
2017-Dec-09 09:25N 10°20' W 075°31'0 0.0
2017-Dec-09 08:59N 10°20' W 075°31'0 0.0
2017-Dec-09 08:29N 10°20' W 075°31'0 0.0
2017-Dec-09 07:59N 10°20' W 075°31'0 0.0
2017-Dec-09 07:29N 10°20' W 075°31'0 0.0
2017-Dec-09 06:56N 10°20' W 075°31'0 0.0
2017-Dec-09 06:26N 10°20' W 075°31'0 0.0
2017-Dec-09 05:58N 10°20' W 075°31'0 0.0
2017-Dec-09 05:26N 10°20' W 075°31'0 0.0
2017-Dec-09 04:59N 10°20' W 075°31'0 0.0
2017-Dec-09 04:29N 10°20' W 075°31'0 0.0
2017-Dec-09 03:59N 10°20' W 075°31'0 0.0
2017-Dec-09 03:29N 10°20' W 075°31'0 0.0
2017-Dec-09 02:56N 10°20' W 075°31'0 0.0
2017-Dec-09 02:29N 10°20' W 075°31'0 0.0
2017-Dec-09 01:56N 10°20' W 075°31'0 0.0
2017-Dec-09 01:26N 10°20' W 075°31'0 0.0
2017-Dec-09 00:56N 10°20' W 075°31'0 0.0
2017-Dec-09 00:25N 10°20' W 075°31'0 0.0
2017-Dec-08 23:56N 10°20' W 075°31'0 0.0
2017-Dec-08 23:29N 10°20' W 075°31'0 0.0
2017-Dec-08 22:56N 10°20' W 075°31'0 0.0
2017-Dec-08 22:25N 10°20' W 075°31'0 0.0
2017-Dec-08 21:56N 10°20' W 075°31'0 0.0
2017-Dec-08 21:26N 10°20' W 075°31'0 0.0
2017-Dec-08 20:55N 10°20' W 075°31'0 0.0
2017-Dec-08 20:29N 10°20' W 075°31'0 0.0
2017-Dec-08 19:59N 10°20' W 075°31'0 0.0
2017-Dec-08 19:29N 10°20' W 075°31'0 0.0
2017-Dec-08 18:59N 10°20' W 075°31'0 0.0
2017-Dec-08 18:29N 10°20' W 075°31'0 0.0
2017-Dec-08 17:59N 10°20' W 075°31'0 0.0
2017-Dec-08 17:28N 10°20' W 075°31'0 0.0
2017-Dec-08 16:53N 10°20' W 075°31'0 0.0
2017-Dec-08 16:29N 10°20' W 075°31'0 0.0
2017-Dec-08 15:59N 10°20' W 075°31'0 0.0
2017-Dec-08 15:29N 10°20' W 075°31'0 0.0
2017-Dec-08 14:59N 10°20' W 075°31'0 0.0
2017-Dec-08 14:29N 10°20' W 075°31'0 0.0
2017-Dec-08 13:59N 10°20' W 075°31'0 0.0
2017-Dec-08 13:29N 10°20' W 075°31'0 0.0
2017-Dec-08 12:56N 10°20' W 075°31'0 0.0
2017-Dec-08 12:28N 10°20' W 075°31'0 0.0
2017-Dec-08 11:56N 10°20' W 075°31'0 0.0
2017-Dec-08 11:29N 10°20' W 075°31'0 0.0
2017-Dec-08 10:56N 10°20' W 075°31'0 0.0
2017-Dec-08 10:29N 10°20' W 075°31'0 0.0
2017-Dec-08 09:59N 10°20' W 075°31'0 0.0
2017-Dec-08 09:29N 10°20' W 075°31'0 0.0
2017-Dec-08 08:59N 10°20' W 075°31'0 0.0
2017-Dec-08 08:29N 10°20' W 075°31'0 0.0
2017-Dec-08 07:56N 10°20' W 075°31'0 0.0
2017-Dec-08 07:29N 10°20' W 075°31'0 0.0
2017-Dec-08 06:58N 10°20' W 075°31'0 0.0
2017-Dec-08 06:29N 10°20' W 075°31'0 0.0
2017-Dec-08 05:58N 10°20' W 075°31'0 0.0
2017-Dec-08 05:29N 10°20' W 075°31'0 0.0
2017-Dec-08 04:56N 10°20' W 075°31'0 0.0
2017-Dec-08 04:29N 10°20' W 075°31'0 0.0
2017-Dec-08 03:58N 10°20' W 075°31'0 0.0
2017-Dec-08 03:29N 10°20' W 075°31'0 0.0
2017-Dec-08 02:59N 10°20' W 075°31'0 0.0
2017-Dec-08 02:29N 10°20' W 075°31'0 0.0
2017-Dec-08 01:59N 10°20' W 075°31'0 0.0
2017-Dec-08 01:29N 10°20' W 075°31'0 0.0
2017-Dec-08 00:58N 10°20' W 075°31'0 0.0
2017-Dec-08 00:29N 10°20' W 075°31'0 0.0
2017-Dec-07 23:58N 10°20' W 075°31'0 0.0
2017-Dec-07 23:29N 10°20' W 075°31'0 0.0
2017-Dec-07 22:59N 10°20' W 075°31'0 0.0
2017-Dec-07 22:29N 10°20' W 075°31'0 0.0
2017-Dec-07 21:59N 10°20' W 075°31'0 0.0
2017-Dec-07 21:29N 10°20' W 075°31'0 0.0
2017-Dec-07 20:59N 10°20' W 075°31'0 0.0
2017-Dec-07 20:29N 10°20' W 075°31'0 0.0
2017-Dec-07 19:59N 10°20' W 075°31'0 0.0
2017-Dec-07 19:29N 10°20' W 075°31'0 0.1
2017-Dec-07 19:00N 10°20' W 075°31'1 2.0
2017-Dec-07 18:30N 10°20' W 075°32'0 0.8
2017-Dec-07 17:59N 10°19' W 075°32'0 0.0
2017-Dec-07 17:29N 10°19' W 075°32'0 0.0
2017-Dec-07 16:59N 10°19' W 075°32'0 0.0
2017-Dec-07 16:29N 10°19' W 075°32'0 0.1
2017-Dec-07 15:59N 10°19' W 075°32'0 0.1
2017-Dec-07 15:29N 10°20' W 075°32'0 0.0
2017-Dec-07 14:59N 10°20' W 075°32'0 0.0
2017-Dec-07 14:29N 10°20' W 075°32'0 0.0
2017-Dec-07 13:59N 10°20' W 075°32'0 0.0
2017-Dec-07 13:29N 10°20' W 075°32'0 0.0
2017-Dec-07 12:59N 10°20' W 075°32'0 0.0
2017-Dec-07 12:29N 10°20' W 075°32'0 0.0
2017-Dec-07 11:59N 10°20' W 075°32'0 0.0
2017-Dec-07 11:29N 10°20' W 075°32'0 0.0
2017-Dec-07 10:59N 10°20' W 075°32'0 0.0
2017-Dec-07 10:29N 10°20' W 075°32'0 0.0
2017-Dec-07 09:59N 10°20' W 075°32'0 0.0
2017-Dec-07 09:29N 10°20' W 075°32'0 0.0
2017-Dec-07 08:59N 10°20' W 075°32'0 0.0
2017-Dec-07 08:29N 10°20' W 075°32'0 0.1
2017-Dec-07 07:59N 10°20' W 075°32'0 0.1
2017-Dec-07 07:29N 10°19' W 075°32'0 0.1
2017-Dec-07 06:59N 10°19' W 075°32'0 0.1
2017-Dec-07 06:29N 10°19' W 075°32'0 0.0
2017-Dec-07 05:59N 10°19' W 075°32'0 0.1
2017-Dec-07 05:29N 10°19' W 075°32'0 0.1
2017-Dec-07 04:59N 10°19' W 075°32'0 0.0
2017-Dec-07 04:29N 10°19' W 075°32'0 0.0
2017-Dec-07 03:59N 10°19' W 075°32'0 0.0
2017-Dec-07 03:29N 10°19' W 075°32'0 0.0
2017-Dec-07 02:59N 10°19' W 075°32'0 0.0
2017-Dec-07 02:29N 10°19' W 075°32'0 0.1
2017-Dec-07 01:59N 10°19' W 075°32'0 0.1
2017-Dec-07 01:29N 10°19' W 075°32'0 0.0
2017-Dec-07 00:59N 10°19' W 075°32'0 0.0
2017-Dec-07 00:29N 10°19' W 075°32'0 0.0
2017-Dec-06 23:59N 10°19' W 075°32'0 0.1
2017-Dec-06 23:29N 10°19' W 075°32'0 0.2
2017-Dec-06 22:59N 10°19' W 075°32'0 0.2
2017-Dec-06 22:29N 10°19' W 075°32'0 0.1
2017-Dec-06 21:59N 10°19' W 075°32'0 0.1
2017-Dec-06 21:29N 10°19' W 075°32'0 0.0
2017-Dec-06 20:59N 10°19' W 075°32'  

Dump ship's entire track history